Time;durP1;ratioP1;P1;durP2;ratioP2;P2;SDS_P1;SDS_P2;PMS_P1;PMS_P2;Temp;Humidity;BMP_temperature;BMP_pressure;BME280_temperature;BME280_humidity;BME280_pressure;Samples;Min_cycle;Max_cycle;Signal;HPM_P1;HPM_P2
2022/07/18 00:00:08;;;;;;;4.15;3.75;;;;;;;10.05;77.65;95485.75;1638488;86;21255;-58
2022/07/18 00:02:37;;;;;;;3.60;3.20;;;;;;;10.02;77.68;95477.74;1640565;86;21010;-56
2022/07/18 00:05:06;;;;;;;5.60;3.35;;;;;;;10.00;77.83;95483.48;1648971;86;20998;-56
2022/07/18 00:07:36;;;;;;;3.47;3.17;;;;;;;9.97;78.30;95484.34;1640724;86;21082;-58
2022/07/18 00:10:05;;;;;;;5.50;3.42;;;;;;;9.97;78.59;95485.70;1633332;86;21086;-57
2022/07/18 00:12:33;;;;;;;7.35;3.27;;;;;;;9.96;78.56;95487.67;1632280;86;21850;-58
2022/07/18 00:15:01;;;;;;;4.12;3.40;;;;;;;9.95;78.49;95486.13;1630199;86;21014;-57
2022/07/18 00:17:30;;;;;;;6.67;3.37;;;;;;;9.90;78.50;95486.63;1632587;86;20994;-57
2022/07/18 00:19:58;;;;;;;2.80;2.60;;;;;;;9.84;78.84;95490.30;1642510;87;21039;-57
2022/07/18 00:22:29;;;;;;;4.70;3.35;;;;;;;9.78;79.00;95485.12;1631944;86;21191;-56
2022/07/18 00:24:59;;;;;;;6.08;3.37;;;;;;;9.71;79.31;95483.30;1638574;86;21179;-56
2022/07/18 00:27:27;;;;;;;4.00;3.58;;;;;;;9.71;79.45;95481.13;1640880;86;21085;-56
2022/07/18 00:29:57;;;;;;;13.40;4.15;;;;;;;9.70;79.65;95480.38;1634358;86;21050;-55
2022/07/18 00:32:25;;;;;;;3.83;3.30;;;;;;;9.67;79.26;95487.30;1643010;86;21039;-56
2022/07/18 00:34:54;;;;;;;5.30;3.55;;;;;;;9.61;79.40;95483.52;1640591;86;21043;-56
2022/07/18 00:37:22;;;;;;;5.05;3.60;;;;;;;9.55;79.28;95481.06;1641377;86;21239;-58
2022/07/18 00:39:51;;;;;;;3.50;3.20;;;;;;;9.49;79.26;95491.00;1645021;86;20963;-57
2022/07/18 00:42:20;;;;;;;3.50;3.20;;;;;;;9.49;79.35;95489.63;1630989;86;21136;-58
2022/07/18 00:44:57;;;;;;;5.40;3.35;;;;;;;9.51;79.52;95480.36;1633780;86;21519;-56
2022/07/18 00:47:29;;;;;;;4.17;3.30;;;;;;;9.53;79.47;95489.74;1600503;87;21077;-57
2022/07/18 00:49:57;;;;;;;5.28;3.40;;;;;;;9.54;79.33;95487.17;1640266;86;21288;-57
2022/07/18 00:52:26;;;;;;;3.70;3.10;;;;;;;9.52;79.21;95481.91;1647915;86;21031;-57
2022/07/18 00:54:54;;;;;;;3.85;3.37;;;;;;;9.51;79.20;95488.59;1624663;87;21043;-57
2022/07/18 00:57:22;;;;;;;3.52;3.10;;;;;;;9.51;79.19;95484.48;1629890;86;21448;-56
2022/07/18 01:02:36;;;;;;;4.72;3.37;;;;;;;9.55;79.37;95490.67;1612693;87;21164;-56
2022/07/18 01:05:06;;;;;;;4.78;3.20;;;;;;;9.56;79.09;95490.27;1642890;86;21564;-56
2022/07/18 01:07:36;;;;;;;4.12;3.47;;;;;;;9.51;78.76;95492.72;1630422;86;21717;-56
2022/07/18 01:10:06;;;;;;;4.17;3.37;;;;;;;9.44;78.51;95490.13;1632969;86;21631;-56
2022/07/18 01:12:34;;;;;;;5.03;3.20;;;;;;;9.36;78.74;95490.06;1610444;86;20979;-56
2022/07/18 01:15:04;;;;;;;3.65;3.10;;;;;;;9.36;78.95;95491.44;1617653;86;21254;-56
2022/07/18 01:17:32;;;;;;;3.30;3.00;;;;;;;9.37;79.03;95495.15;1643422;86;20994;-56
2022/07/18 01:20:01;;;;;;;4.80;3.17;;;;;;;9.40;79.15;95492.17;1646720;86;21020;-57
2022/07/18 01:22:30;;;;;;;3.90;3.50;;;;;;;9.39;79.05;95491.96;1635012;86;21533;-56
2022/07/18 01:24:58;;;;;;;4.22;3.20;;;;;;;9.37;79.36;95501.22;1640608;86;21019;-57
2022/07/18 01:27:28;;;;;;;4.17;3.10;;;;;;;9.33;79.56;95490.91;1649892;86;21196;-56
2022/07/18 01:29:56;;;;;;;3.35;3.08;;;;;;;9.27;79.92;95492.59;1624646;86;20969;-56
2022/07/18 01:32:25;;;;;;;6.92;3.10;;;;;;;9.29;80.34;95496.45;1633452;86;21038;-56
2022/07/18 01:34:53;;;;;;;4.30;3.17;;;;;;;9.33;80.59;95497.19;1644964;86;21086;-57
2022/07/18 01:37:22;;;;;;;6.62;3.72;;;;;;;9.34;80.29;95493.83;1640645;86;21030;-57
2022/07/18 01:39:50;;;;;;;4.78;3.55;;;;;;;9.29;79.94;95492.95;1635469;86;21905;-57
2022/07/18 01:42:19;;;;;;;5.30;3.30;;;;;;;9.22;80.04;95491.11;1631421;86;20990;-57
2022/07/18 01:44:47;;;;;;;5.72;3.55;;;;;;;9.19;80.37;95489.79;1625382;86;21055;-57
2022/07/18 01:47:15;;;;;;;3.02;2.83;;;;;;;9.14;80.43;95493.03;1620345;86;21183;-57
2022/07/18 01:49:43;;;;;;;3.62;3.30;;;;;;;9.13;80.34;95492.84;1639726;86;21061;-57
2022/07/18 01:52:12;;;;;;;4.28;3.37;;;;;;;9.04;80.26;95479.67;1652886;86;21250;-57
2022/07/18 01:54:40;;;;;;;7.12;3.12;;;;;;;8.97;80.51;95485.88;1647538;87;20983;-57
2022/07/18 01:57:09;;;;;;;5.97;3.20;;;;;;;8.95;80.62;95494.55;1637668;86;21728;-57
2022/07/18 01:59:37;;;;;;;3.40;3.10;;;;;;;8.95;80.69;95489.06;1628750;86;21083;-59
2022/07/18 02:02:05;;;;;;;3.45;3.15;;;;;;;8.97;80.61;95481.77;1644589;86;21149;-57
2022/07/18 02:07:24;;;;;;;7.45;4.17;;;;;;;8.87;80.50;95493.71;1630554;86;20979;-57
2022/07/18 02:09:52;;;;;;;6.65;4.58;;;;;;;8.75;80.54;95498.99;1626417;86;21458;-57
2022/07/18 02:12:22;;;;;;;4.05;3.65;;;;;;;8.64;80.86;95490.94;1637067;86;20975;-58
2022/07/18 02:14:52;;;;;;;5.37;3.55;;;;;;;8.64;81.37;95495.05;1640193;86;20978;-56
2022/07/18 02:17:21;;;;;;;4.40;3.40;;;;;;;8.69;81.38;95497.92;1628051;86;21242;-57
2022/07/18 02:19:50;;;;;;;4.45;4.05;;;;;;;8.69;81.30;95497.34;1627996;86;21086;-56
2022/07/18 02:22:18;;;;;;;5.33;4.30;;;;;;;8.69;81.32;95497.34;1639307;86;21602;-58
2022/07/18 02:24:47;;;;;;;4.70;4.30;;;;;;;8.66;81.36;95505.01;1634757;87;21165;-57
2022/07/18 02:27:16;;;;;;;7.47;4.50;;;;;;;8.64;81.64;95501.91;1636699;86;20979;-57
2022/07/18 02:29:44;;;;;;;5.55;3.85;;;;;;;8.66;81.78;95498.77;1636679;87;21141;-57
2022/07/18 02:32:14;;;;;;;10.25;4.35;;;;;;;8.68;81.86;95502.65;1592772;86;21538;-57
2022/07/18 02:34:43;;;;;;;9.25;4.60;;;;;;;8.68;81.92;95502.65;1632704;86;21050;-56
2022/07/18 02:37:11;;;;;;;17.17;5.47;;;;;;;8.66;81.79;95511.86;1647768;86;21154;-57
2022/07/18 02:39:39;;;;;;;10.63;5.40;;;;;;;8.63;81.94;95507.22;1640612;85;21106;-57
2022/07/18 02:42:07;;;;;;;6.28;4.45;;;;;;;8.56;81.90;95510.08;1650336;86;21250;-56
2022/07/18 02:44:36;;;;;;;6.70;4.97;;;;;;;8.53;82.14;95512.28;1642660;86;21027;-57
2022/07/18 02:47:04;;;;;;;8.18;4.30;;;;;;;8.56;82.13;95514.77;1628052;86;21023;-59
2022/07/18 02:49:33;;;;;;;5.78;4.30;;;;;;;8.56;81.71;95515.56;1634582;86;21010;-57
2022/07/18 02:52:05;;;;;;;4.97;3.65;;;;;;;8.55;81.82;95520.87;1644696;86;21099;-57
2022/07/18 02:54:35;;;;;;;5.08;4.08;;;;;;;8.54;81.51;95522.06;1630196;86;21260;-57
2022/07/18 02:57:03;;;;;;;6.42;5.17;;;;;;;8.52;81.59;95517.59;1642056;86;21066;-56
2022/07/18 02:59:32;;;;;;;7.55;4.28;;;;;;;8.52;81.49;95523.08;1648635;86;21503;-56
2022/07/18 03:02:02;;;;;;;4.55;3.60;;;;;;;8.50;81.77;95522.72;1640998;86;21125;-56
2022/07/18 03:04:30;;;;;;;5.83;4.03;;;;;;;8.50;81.69;95525.46;1634940;86;20971;-56
2022/07/18 03:06:59;;;;;;;6.42;4.60;;;;;;;8.45;81.85;95522.41;1642294;86;21372;-61
2022/07/18 03:09:27;;;;;;;8.18;3.95;;;;;;;8.42;82.40;95524.00;1643502;85;21159;-57
2022/07/18 03:11:56;;;;;;;5.70;4.30;;;;;;;8.45;82.41;95527.27;1610721;86;21014;-57
2022/07/18 03:14:24;;;;;;;6.33;4.00;;;;;;;8.43;82.23;95521.44;1637183;86;21075;-57
2022/07/18 03:16:53;;;;;;;5.00;4.45;;;;;;;8.45;82.38;95529.26;1642681;86;20970;-57
2022/07/18 03:19:23;;;;;;;4.05;3.75;;;;;;;8.48;82.16;95531.95;1631395;86;20958;-57
2022/07/18 03:21:52;;;;;;;4.87;3.87;;;;;;;8.45;81.92;95530.02;1624519;86;21097;-56
2022/07/18 03:24:21;;;;;;;5.37;4.20;;;;;;;8.44;82.04;95529.08;1636523;86;20987;-57
2022/07/18 03:26:49;;;;;;;4.45;4.05;;;;;;;8.44;82.11;95535.32;1634890;86;21003;-57
2022/07/18 03:29:17;;;;;;;7.72;5.10;;;;;;;8.45;82.21;95529.26;1642276;86;20979;-57
2022/07/18 03:31:46;;;;;;;8.68;4.53;;;;;;;8.42;82.21;95530.09;1641205;86;21237;-57
2022/07/18 03:34:14;;;;;;;4.60;4.20;;;;;;;8.41;82.48;95525.19;1637735;86;20987;-56
2022/07/18 03:36:42;;;;;;;4.83;4.28;;;;;;;8.47;82.45;95530.38;1631428;86;21019;-57
2022/07/18 03:39:10;;;;;;;5.05;4.37;;;;;;;8.56;82.65;95516.94;1634157;86;21467;-56
2022/07/18 03:41:40;;;;;;;4.20;3.80;;;;;;;8.69;82.45;95520.66;1628333;86;21023;-57
2022/07/18 03:44:08;;;;;;;6.03;4.22;;;;;;;8.78;82.27;95516.78;1648185;86;21122;-56
2022/07/18 03:46:37;;;;;;;4.05;3.67;;;;;;;8.89;82.17;95516.02;1635766;86;21114;-56
2022/07/18 03:49:05;;;;;;;5.42;3.47;;;;;;;9.00;81.75;95517.39;1653036;86;21071;-56
2022/07/18 03:51:33;;;;;;;4.70;3.50;;;;;;;9.07;81.37;95517.86;1645026;86;21001;-56
2022/07/18 03:54:02;;;;;;;3.58;3.27;;;;;;;9.15;81.59;95515.95;1615395;87;21084;-56
2022/07/18 03:56:30;;;;;;;5.15;3.37;;;;;;;9.30;81.46;95517.84;1636208;86;21084;-57
2022/07/18 03:58:58;;;;;;;4.00;3.70;;;;;;;9.40;81.12;95519.02;1647634;86;21011;-57
2022/07/18 04:01:27;;;;;;;4.92;3.70;;;;;;;9.49;80.72;95519.25;1647971;86;21006;-57
2022/07/18 04:03:55;;;;;;;5.00;3.20;;;;;;;9.51;80.56;95517.44;1606192;86;21099;-57
2022/07/18 04:06:24;;;;;;;3.30;3.10;;;;;;;9.55;80.27;95514.02;1597013;88;21172;-57
2022/07/18 04:08:51;;;;;;;3.52;3.22;;;;;;;9.64;80.29;95514.25;1608771;88;21211;-57
2022/07/18 04:11:23;;;;;;;3.55;3.22;;;;;;;9.76;80.18;95512.26;1615545;88;21067;-57
2022/07/18 04:13:53;;;;;;;5.97;3.40;;;;;;;9.88;79.87;95512.39;1583540;88;21048;-56
2022/07/18 04:16:21;;;;;;;4.35;3.50;;;;;;;10.01;79.51;95515.27;1612293;87;21512;-58
2022/07/18 04:18:49;;;;;;;3.70;3.33;;;;;;;10.09;79.35;95509.81;1604807;88;21105;-57
2022/07/18 04:21:17;;;;;;;4.33;3.42;;;;;;;10.17;79.20;95507.86;1605103;88;21196;-59
2022/07/18 04:23:45;;;;;;;5.72;4.10;;;;;;;10.23;78.68;95512.27;1596568;88;21086;-58
2022/07/18 04:26:13;;;;;;;3.98;3.58;;;;;;;10.27;78.27;95510.20;1599857;88;21020;-60
2022/07/18 04:28:41;;;;;;;5.42;4.10;;;;;;;10.31;78.37;95508.17;1604297;88;21003;-56
2022/07/18 04:31:09;;;;;;;14.47;7.75;;;;;;;10.35;78.33;95515.12;1596286;88;21087;-57
2022/07/18 04:33:38;;;;;;;7.80;4.70;;;;;;;10.42;78.36;95503.98;1610171;88;21248;-58
2022/07/18 04:36:07;;;;;;;5.53;3.83;;;;;;;10.51;78.21;95510.27;1604402;88;21105;-55
2022/07/18 04:38:37;;;;;;;4.55;3.70;;;;;;;10.56;77.85;95498.75;1608379;88;21003;-59
2022/07/18 04:41:05;;;;;;;4.85;4.05;;;;;;;10.63;77.72;95499.36;1612168;88;21427;-59
2022/07/18 04:43:32;;;;;;;4.80;3.50;;;;;;;10.84;77.53;95504.35;1614947;87;21046;-58
2022/07/18 04:46:02;;;;;;;7.60;4.55;;;;;;;11.17;77.14;95505.27;1609393;88;21280;-58
2022/07/18 04:48:30;;;;;;;7.50;3.50;;;;;;;11.58;75.84;95494.39;1608276;88;21731;-58
2022/07/18 04:50:57;;;;;;;3.80;3.40;;;;;;;12.04;74.64;95497.99;1609289;88;21208;-58
2022/07/18 04:53:25;;;;;;;3.98;3.22;;;;;;;12.35;72.50;95496.87;1607719;88;21086;-58
2022/07/18 04:55:54;;;;;;;3.65;3.35;;;;;;;12.41;71.13;95495.90;1601806;87;21538;-58
2022/07/18 04:58:23;;;;;;;3.70;3.37;;;;;;;12.38;70.64;95498.16;1607342;87;21218;-58
2022/07/18 05:00:51;;;;;;;4.95;3.50;;;;;;;12.27;70.27;95498.32;1640865;86;21100;-59
2022/07/18 05:03:19;;;;;;;7.83;3.83;;;;;;;12.22;70.73;95498.84;1611357;87;21047;-58
2022/07/18 05:05:48;;;;;;;7.53;6.08;;;;;;;12.21;71.02;95498.67;1647088;86;20994;-63
2022/07/18 05:08:16;;;;;;;7.10;5.10;;;;;;;12.28;70.94;95503.37;1640450;86;21172;-63
2022/07/18 05:10:44;;;;;;;6.47;4.15;;;;;;;12.37;70.88;95498.00;1634200;86;21133;-63
2022/07/18 05:13:13;;;;;;;5.22;4.40;;;;;;;12.44;70.49;95500.53;1645578;86;21019;-63
2022/07/18 05:15:42;;;;;;;7.83;4.95;;;;;;;12.50;70.44;95496.63;1616645;87;20987;-63
2022/07/18 05:18:10;;;;;;;5.55;4.65;;;;;;;12.56;70.38;95491.50;1637957;86;21058;-62
2022/07/18 05:20:39;;;;;;;9.88;4.62;;;;;;;12.65;70.27;95495.73;1637349;86;21027;-63
2022/07/18 05:23:07;;;;;;;6.40;3.70;;;;;;;12.75;70.11;95496.78;1631224;86;21140;-64
2022/07/18 05:25:35;;;;;;;6.70;4.12;;;;;;;12.86;69.92;95492.33;1638632;85;21562;-63
2022/07/18 05:28:06;;;;;;;4.15;3.70;;;;;;;12.91;69.39;95495.91;1642154;86;21039;-61
2022/07/18 05:30:34;;;;;;;7.12;4.17;;;;;;;12.98;68.87;95490.95;1645748;86;21499;-63
2022/07/18 05:33:02;;;;;;;4.37;3.92;;;;;;;13.06;68.67;95490.88;1652717;84;21526;-64
2022/07/18 05:35:30;;;;;;;12.10;3.90;;;;;;;13.12;68.68;95484.18;1662432;84;21231;-59
2022/07/18 05:37:59;;;;;;;7.83;3.47;;;;;;;13.17;68.27;95489.14;1668956;84;21055;-64
2022/07/18 05:40:27;;;;;;;4.83;3.90;;;;;;;13.24;67.90;95486.16;1675345;85;21555;-65
2022/07/18 05:42:56;;;;;;;6.22;3.45;;;;;;;13.28;67.57;95490.95;1668230;85;21122;-62
2022/07/18 05:45:23;;;;;;;5.83;4.05;;;;;;;13.29;67.26;95485.58;1673755;85;21046;-63
2022/07/18 05:47:53;;;;;;;11.15;3.83;;;;;;;13.36;67.25;95488.09;1666036;84;21187;-66
2022/07/18 05:50:22;;;;;;;4.85;3.40;;;;;;;13.45;67.36;95472.98;1660075;85;21493;-64
2022/07/18 05:52:50;;;;;;;4.33;2.62;;;;;;;13.58;67.01;95477.84;1641897;84;20998;-63
2022/07/18 05:55:19;;;;;;;4.33;3.42;;;;;;;13.68;66.50;95470.58;1667110;84;21081;-66
2022/07/18 05:57:46;;;;;;;5.15;3.45;;;;;;;13.76;66.21;95469.69;1660750;85;20984;-70
2022/07/18 06:00:16;;;;;;;5.28;3.70;;;;;;;13.86;66.60;95466.56;1652755;83;21128;-64
2022/07/18 06:02:44;;;;;;;3.85;3.22;;;;;;;13.99;65.96;95463.72;1667924;83;20994;-59
2022/07/18 06:05:12;;;;;;;4.28;2.83;;;;;;;14.12;65.35;95465.78;1665858;83;21092;-60
2022/07/18 06:07:40;;;;;;;4.35;2.75;;;;;;;14.22;64.64;95472.95;1648564;83;21524;-63
2022/07/18 06:12:47;;;;;;;3.70;2.70;;;;;;;14.35;63.92;95468.11;1678883;83;21616;-56
2022/07/18 06:15:15;;;;;;;5.40;2.75;;;;;;;14.43;63.89;95469.53;1673477;84;21104;-56
2022/07/18 06:17:44;;;;;;;4.90;2.67;;;;;;;14.51;63.76;95462.51;1675795;84;21097;-58
2022/07/18 06:20:12;;;;;;;5.00;2.90;;;;;;;14.64;63.10;95465.17;1648224;85;21080;-56
2022/07/18 06:22:40;;;;;;;6.15;3.05;;;;;;;14.70;62.92;95457.80;1683233;83;21037;-56
2022/07/18 06:25:08;;;;;;;4.87;3.00;;;;;;;14.77;62.74;95456.91;1664155;83;21288;-56
2022/07/18 06:27:36;;;;;;;4.67;2.80;;;;;;;14.87;62.71;95459.88;1652593;84;21013;-58
2022/07/18 06:30:07;;;;;;;4.00;2.77;;;;;;;14.97;62.26;95455.89;1667188;84;21029;-61
2022/07/18 06:32:36;;;;;;;8.20;3.37;;;;;;;15.09;62.34;95448.67;1651071;84;21171;-58
2022/07/18 06:35:23;;;;;;;8.23;2.70;;;;;;;15.22;62.21;95441.77;1676513;83;21176;-64
2022/07/18 06:37:52;;;;;;;2.55;2.30;;;;;;;15.41;62.51;95438.44;1670309;83;21181;-63
2022/07/18 06:40:20;;;;;;;4.12;3.05;;;;;;;15.57;61.84;95447.21;1652072;84;21053;-55
2022/07/18 06:42:48;;;;;;;3.22;2.70;;;;;;;15.72;61.22;95439.06;1635540;85;21081;-61
2022/07/18 06:45:15;;;;;;;3.10;2.80;;;;;;;15.85;61.09;95436.27;1636393;86;21678;-60
2022/07/18 06:47:46;;;;;;;4.17;2.70;;;;;;;16.00;60.60;95428.86;1676976;83;21107;-55
2022/07/18 06:50:14;;;;;;;4.20;2.80;;;;;;;16.14;59.83;95427.44;1673733;83;21816;-57
2022/07/18 06:52:43;;;;;;;3.47;2.65;;;;;;;16.24;59.40;95427.58;1685307;83;22562;-61
2022/07/18 06:55:12;;;;;;;2.42;2.22;;;;;;;16.34;59.03;95420.13;1664120;84;21116;-59
2022/07/18 06:57:40;;;;;;;4.47;2.58;;;;;;;16.45;58.73;95420.42;1682059;83;21055;-62
2022/07/18 07:00:10;;;;;;;5.28;2.67;;;;;;;16.57;57.86;95411.13;1667518;84;22297;-60
2022/07/18 07:02:46;;;;;;;3.33;2.10;;;;;;;16.71;56.98;95413.23;1676482;83;21287;-58
2022/07/18 07:05:15;;;;;;;6.12;2.85;;;;;;;16.84;56.32;95408.20;1660046;84;21119;-58
2022/07/18 07:07:45;;;;;;;3.00;2.30;;;;;;;17.01;56.10;95403.78;1673774;83;21450;-67
2022/07/18 07:10:13;;;;;;;4.83;2.30;;;;;;;17.15;55.69;95403.08;1674335;83;21064;-62
2022/07/18 07:12:48;;;;;;;4.67;2.22;;;;;;;17.30;54.95;95403.91;1677479;83;21169;-64
2022/07/18 07:15:19;;;;;;;2.70;2.25;;;;;;;17.41;54.50;95403.54;1661884;83;21312;-71
2022/07/18 07:17:48;;;;;;;3.30;2.95;;;;;;;17.54;54.40;95396.33;1621535;85;21189;-69
2022/07/18 07:20:21;;;;;;;4.05;2.17;;;;;;;17.72;54.24;95398.34;1631590;85;21001;-58
2022/07/18 07:22:49;;;;;;;3.55;2.80;;;;;;;17.88;53.82;95390.16;1625900;85;21452;-61
2022/07/18 07:25:17;;;;;;;5.17;3.12;;;;;;;18.03;53.24;95383.98;1631129;85;21093;-60
2022/07/18 07:27:46;;;;;;;2.72;2.25;;;;;;;18.22;51.97;95382.67;1660458;83;21170;-58
2022/07/18 07:30:15;;;;;;;2.37;2.10;;;;;;;18.35;51.69;95374.83;1651789;83;21248;-62
2022/07/18 07:32:45;;;;;;;3.50;2.10;;;;;;;18.50;52.18;95381.13;1661456;83;21170;-61
2022/07/18 07:35:15;;;;;;;2.72;2.10;;;;;;;18.58;51.16;95374.53;1674623;83;21093;-60
2022/07/18 07:37:47;;;;;;;4.55;2.00;;;;;;;18.63;50.74;95373.23;1612417;85;21061;-64
2022/07/18 07:40:15;;;;;;;3.67;1.95;;;;;;;18.70;51.38;95371.45;1669061;83;21818;-63
2022/07/18 07:42:47;;;;;;;2.42;1.75;;;;;;;18.80;50.77;95372.84;1653702;84;21261;-65
2022/07/18 07:45:16;;;;;;;3.98;1.80;;;;;;;18.91;50.21;95371.62;1624201;85;21041;-60
2022/07/18 07:47:44;;;;;;;6.40;3.17;;;;;;;19.04;50.03;95369.25;1645149;85;21087;-57
2022/07/18 07:50:12;;;;;;;4.62;2.37;;;;;;;19.18;50.13;95372.64;1625276;86;21073;-57
2022/07/18 07:52:40;;;;;;;1.75;1.65;;;;;;;19.34;50.51;95365.12;1622015;85;21173;-65
2022/07/18 07:55:09;;;;;;;1.65;1.50;;;;;;;19.49;50.81;95364.42;1627537;84;20914;-61
2022/07/18 07:57:38;;;;;;;3.00;2.20;;;;;;;19.56;49.93;95353.46;1621465;85;21066;-61
2022/07/18 08:00:09;;;;;;;3.40;1.90;;;;;;;19.60;50.93;95363.13;1631641;85;21080;-63
2022/07/18 08:03:05;;;;;;;2.05;1.60;;;;;;;19.61;50.72;95364.69;1655228;84;21484;-58
2022/07/18 08:05:32;;;;;;;3.12;2.00;;;;;;;19.62;50.71;95360.64;1638722;84;21845;-67
2022/07/18 08:08:01;;;;;;;6.75;1.92;;;;;;;19.69;50.14;95363.00;1645247;84;38337;-63
2022/07/18 08:10:29;;;;;;;3.92;2.10;;;;;;;19.84;50.62;95360.88;1658905;83;21229;-62
2022/07/18 08:13:00;;;;;;;2.90;1.75;;;;;;;20.07;50.70;95358.46;1669092;83;21141;-61
2022/07/18 08:15:28;;;;;;;3.17;1.72;;;;;;;20.34;48.56;95364.95;1644669;84;21615;-56
2022/07/18 08:17:59;;;;;;;5.85;2.08;;;;;;;20.59;47.72;95364.12;1656863;83;22064;-65
2022/07/18 08:20:27;;;;;;;3.85;1.80;;;;;;;20.84;45.83;95361.91;1641333;84;21096;-62
2022/07/18 08:23:00;;;;;;;2.52;1.65;;;;;;;21.05;45.46;95356.30;1675607;83;21068;-62
2022/07/18 08:25:30;;;;;;;2.52;1.32;;;;;;;21.21;44.87;95358.43;1649137;84;21182;-63
2022/07/18 08:28:01;;;;;;;7.72;2.30;;;;;;;21.29;43.36;95353.91;1630357;84;21174;-62
2022/07/18 08:30:28;;;;;;;5.92;1.60;;;;;;;21.27;42.81;95359.24;1668533;83;22620;-62
2022/07/18 08:32:56;;;;;;;2.83;1.40;;;;;;;21.20;42.15;95358.30;1681652;84;21576;-63
2022/07/18 08:35:25;;;;;;;2.55;1.32;;;;;;;21.10;43.18;95361.19;1701673;82;21590;-63
2022/07/18 08:37:54;;;;;;;3.65;2.10;;;;;;;21.04;43.14;95359.75;1691816;82;21974;-64
2022/07/18 08:40:21;;;;;;;2.65;1.50;;;;;;;21.03;43.48;95355.42;1677454;83;21053;-63
2022/07/18 08:42:53;;;;;;;3.27;1.60;;;;;;;21.10;43.52;95356.98;1667970;83;21127;-64
2022/07/18 08:45:22;;;;;;;2.55;1.30;;;;;;;21.17;41.54;95356.51;1608034;86;20994;-63
2022/07/18 08:47:52;;;;;;;2.20;1.30;;;;;;;21.25;42.33;95354.78;1669346;83;21120;-61
2022/07/18 08:50:21;;;;;;;1.70;1.20;;;;;;;21.37;41.58;95348.73;1645882;83;21086;-59
2022/07/18 08:52:49;;;;;;;2.12;1.57;;;;;;;21.54;41.58;95346.76;1663453;83;21072;-57
2022/07/18 08:55:18;;;;;;;3.33;2.02;;;;;;;21.69;42.35;95345.17;1649678;83;21260;-62
2022/07/18 08:57:47;;;;;;;3.50;1.60;;;;;;;21.75;39.82;95344.55;1665438;84;21065;-63
2022/07/18 09:00:16;;;;;;;3.45;1.12;;;;;;;21.74;38.88;95340.22;1678582;83;21120;-63
2022/07/18 09:02:44;;;;;;;3.92;1.20;;;;;;;21.72;38.30;95345.56;1655869;83;21540;-63
2022/07/18 09:05:20;;;;;;;3.62;1.22;;;;;;;21.71;38.25;95346.83;1628615;84;21106;-62
2022/07/18 09:07:50;;;;;;;4.85;1.80;;;;;;;21.69;37.44;95345.92;1643721;85;21154;-62
2022/07/18 09:10:21;;;;;;;4.42;1.60;;;;;;;21.63;37.36;95345.15;1618172;85;21066;-61
2022/07/18 09:12:58;;;;;;;2.75;1.20;;;;;;;21.73;37.68;95343.67;1653275;83;21169;-71
2022/07/18 09:15:26;;;;;;;1.87;1.22;;;;;;;21.99;38.45;95343.48;1666877;82;21290;-63
2022/07/18 09:17:57;;;;;;;4.53;1.50;;;;;;;22.31;36.74;95335.08;1654871;84;21070;-61
2022/07/18 09:20:25;;;;;;;2.30;1.30;;;;;;;22.53;35.37;95344.17;1656701;84;21960;-64
2022/07/18 09:22:53;;;;;;;2.77;1.32;;;;;;;22.61;36.31;95336.14;1655131;84;21106;-64
2022/07/18 09:25:24;;;;;;;4.78;1.42;;;;;;;22.67;36.57;95338.30;1668094;83;21191;-64
2022/07/18 09:27:53;;;;;;;8.78;5.10;;;;;;;22.65;36.60;95335.23;1657761;83;21119;-61
2022/07/18 09:30:33;;;;;;;8.40;2.90;;;;;;;22.58;36.46;95333.58;1670874;83;21156;-66
2022/07/18 09:33:07;;;;;;;2.10;1.10;;;;;;;22.54;36.50;95331.05;1662633;83;21157;-62
2022/07/18 09:35:43;;;;;;;5.03;1.60;;;;;;;22.47;36.38;95330.14;1657330;84;21112;-62
2022/07/18 09:38:15;;;;;;;3.83;1.50;;;;;;;22.46;37.43;95327.22;1611493;86;21524;-61
2022/07/18 09:40:45;;;;;;;;;;;;;;;22.47;35.89;95330.80;1649081;84;21540;-63
2022/07/18 09:43:16;;;;;;;3.65;2.20;;;;;;;22.44;35.70;95331.17;1619193;86;20164;-65
2022/07/18 09:45:48;;;;;;;3.00;1.70;;;;;;;22.49;36.15;95329.65;1593587;88;22464;-64
2022/07/18 09:48:19;;;;;;;4.72;1.52;;;;;;;22.59;35.83;95331.68;1597474;87;21027;-60
2022/07/18 09:50:55;;;;;;;3.42;1.30;;;;;;;22.64;36.33;95335.11;1661952;83;21683;-58
2022/07/18 09:53:25;;;;;;;5.62;1.47;;;;;;;22.82;39.17;95328.97;1685050;83;21080;-62
2022/07/18 09:55:54;;;;;;;15.35;1.85;;;;;;;23.14;39.25;95328.03;1656386;83;22144;-57
2022/07/18 09:58:24;;;;;;;3.92;1.30;;;;;;;23.41;36.98;95326.53;1680383;83;21185;-68
2022/07/18 10:00:53;;;;;;;1.80;0.98;;;;;;;23.70;36.45;95317.47;1650577;85;21591;-59
2022/07/18 10:03:22;;;;;;;5.30;1.95;;;;;;;23.93;34.04;95322.36;1625015;86;21147;-58
2022/07/18 10:05:52;;;;;;;4.90;1.47;;;;;;;23.94;33.48;95311.98;1623793;85;21932;-60
2022/07/18 10:08:22;;;;;;;1.75;1.30;;;;;;;23.96;35.26;95309.41;1623846;85;21046;-60
2022/07/18 10:10:52;;;;;;;3.20;1.50;;;;;;;24.15;37.08;95306.09;1689364;83;21414;-59
2022/07/18 10:13:22;;;;;;;2.15;1.12;;;;;;;24.43;36.99;95303.18;1680412;83;21005;-59
2022/07/18 10:15:50;;;;;;;3.37;1.12;;;;;;;24.75;36.19;95311.91;1660500;83;21523;-59
2022/07/18 10:18:21;;;;;;;2.55;1.17;;;;;;;24.84;34.88;95307.33;1662344;84;21068;-59
2022/07/18 10:21:02;;;;;;;2.58;1.10;;;;;;;24.80;36.62;95316.72;1694189;83;21006;-58
2022/07/18 10:23:33;;;;;;;2.58;1.12;;;;;;;24.70;35.23;95307.07;1667632;83;21979;-59
2022/07/18 10:26:22;;;;;;;1.37;0.82;;;;;;;24.52;33.59;95308.52;1656019;85;21145;-58
2022/07/18 10:29:04;;;;;;;3.10;0.95;;;;;;;24.32;34.20;95313.77;1615953;84;21122;-61
2022/07/18 10:31:39;;;;;;;1.50;1.00;;;;;;;24.17;35.92;95309.17;1674005;84;21173;-58
2022/07/18 10:34:11;;;;;;;3.35;1.20;;;;;;;24.10;36.15;95305.49;1638238;86;21098;-62
2022/07/18 10:36:56;;;;;;;;;;;;;;;24.08;35.98;95311.66;1642838;85;21947;-60
2022/07/18 10:39:34;;;;;;;3.92;1.00;;;;;;;24.35;35.45;95305.70;1669471;83;20810;-58
2022/07/18 10:42:13;;;;;;;2.95;1.20;;;;;;;24.41;33.73;95300.79;1651337;84;21195;-61
2022/07/18 10:44:41;;;;;;;2.58;1.47;;;;;;;24.54;34.12;95303.78;1650905;84;21075;-67
2022/07/18 10:47:23;;;;;;;4.62;1.50;;;;;;;25.01;33.34;95296.66;1642393;84;21205;-64
2022/07/18 10:49:56;;;;;;;4.47;1.30;;;;;;;25.51;32.89;95310.97;1607434;87;21271;-59
2022/07/18 10:52:33;;;;;;;4.00;1.07;;;;;;;25.93;31.55;95304.66;1680532;83;21593;-65
2022/07/18 10:55:16;;;;;;;5.97;1.02;;;;;;;25.81;31.19;95307.39;1691255;84;21191;-59
2022/07/18 10:57:43;;;;;;;3.75;1.10;;;;;;;25.93;34.80;95306.06;1679327;83;21007;-63
2022/07/18 11:00:13;;;;;;;4.10;1.15;;;;;;;26.29;34.15;95299.52;1678635;83;21164;-59
2022/07/18 11:02:50;;;;;;;1.15;0.95;;;;;;;26.21;33.12;95305.02;1669921;83;21252;-64
2022/07/18 11:05:29;;;;;;;2.65;1.27;;;;;;;25.98;31.03;95300.98;1668059;83;21080;-62
2022/07/18 11:08:05;;;;;;;3.10;1.05;;;;;;;25.58;32.04;95301.91;1715695;82;22404;-60
2022/07/18 11:10:51;;;;;;;2.98;1.10;;;;;;;25.21;32.79;95306.06;1676003;82;21095;-64
2022/07/18 11:13:31;;;;;;;3.85;1.25;;;;;;;24.91;32.51;95307.52;1678048;83;21077;-64
2022/07/18 11:16:09;;;;;;;4.65;1.12;;;;;;;24.78;34.25;95304.56;1672662;83;21344;-64
2022/07/18 11:18:48;;;;;;;3.05;1.35;;;;;;;25.02;33.97;95302.41;1670058;83;21477;-64
2022/07/18 11:21:29;;;;;;;1.57;0.98;;;;;;;25.63;34.53;95296.87;1676222;84;21112;-67
2022/07/18 11:24:02;;;;;;;7.58;1.62;;;;;;;26.03;31.39;95297.34;1666191;83;21092;-65
2022/07/18 11:26:30;;;;;;;3.10;1.35;;;;;;;26.43;30.71;95294.80;1655207;84;21118;-68
2022/07/18 11:29:06;;;;;;;1.67;1.00;;;;;;;26.57;31.71;95296.39;1688601;83;21223;-67
2022/07/18 11:31:52;;;;;;;2.27;1.10;;;;;;;26.62;32.96;95296.95;1656116;82;21198;-66
2022/07/18 11:34:38;;;;;;;1.75;0.93;;;;;;;27.11;32.47;95288.27;1689582;83;21612;-63
2022/07/18 11:37:05;;;;;;;1.77;1.07;;;;;;;27.91;33.36;95282.03;1665686;83;21105;-62
2022/07/18 11:39:34;;;;;;;4.12;1.10;;;;;;;28.55;32.27;95279.63;1681574;83;21441;-62
2022/07/18 11:42:04;;;;;;;3.10;1.15;;;;;;;28.60;30.76;95280.89;1667338;84;21199;-63
2022/07/18 11:44:33;;;;;;;2.17;1.00;;;;;;;28.72;30.93;95284.97;1677571;82;21462;-62
2022/07/18 11:47:08;;;;;;;1.75;0.93;;;;;;;28.78;29.60;95270.67;1683677;83;20949;-64
2022/07/18 11:49:37;;;;;;;2.75;0.98;;;;;;;29.25;28.68;95266.97;1658529;83;21113;-62
2022/07/18 11:52:05;;;;;;;4.70;0.93;;;;;;;29.43;28.94;95268.78;1625681;86;21094;-67
2022/07/18 11:54:34;;;;;;;2.15;1.02;;;;;;;29.66;29.12;95264.04;1651359;84;21689;-61
2022/07/18 11:57:03;;;;;;;2.47;1.00;;;;;;;29.96;28.69;95269.17;1626617;84;21037;-63